This is the latest recevied weather packets stored in our database for station/object KC3WWU. If no packets are shown the sender has not sent any weather packets the latest 10 day(s).
| Time | Temp. | Humidity | Pressure | Rain* | Wind** | Luminosity | Snow |
|---|---|---|---|---|---|---|---|
| 1777878482 | 5° C | 71% | 1010.7 hPa | 0 mm | - | 0 W/m² | - |
| 1777878178 | 5° C | 71% | 1010.5 hPa | 0 mm | - | 0 W/m² | - |
| 1777877874 | 5° C | 71% | 1010.7 hPa | 0 mm | - | 0 W/m² | - |
| 1777877571 | 5° C | 71% | 1010.8 hPa | 0 mm | - | 0 W/m² | - |
| 1777877267 | 5° C | 72% | 1010.7 hPa | 0 mm | - | 0 W/m² | - |
| 1777876965 | 3.33° C | 78% | 1010.8 hPa | 0 mm | - | 0 W/m² | - |
| 1777876663 | 3.33° C | 82% | 1010.8 hPa | 0 mm | - | 0 W/m² | - |
| 1777876360 | 3.33° C | 81% | 1011 hPa | 0 mm | - | 0 W/m² | - |
| 1777876056 | 3.89° C | 78% | 1010.7 hPa | 0 mm | - | 0 W/m² | - |
| 1777875752 | 4.44° C | 75% | 1011.1 hPa | 0 mm | - | 0 W/m² | - |
| 1777875449 | 4.44° C | 77% | 1010.8 hPa | 0 mm | - | 0 W/m² | - |
| 1777875145 | 4.44° C | 75% | 1011 hPa | 0 mm | - | 0 W/m² | - |
| 1777874842 | 3.89° C | 79% | 1011.1 hPa | 0 mm | - | 0 W/m² | - |
| 1777874538 | 2.78° C | 82% | 1011.1 hPa | 0 mm | - | 0 W/m² | - |
| 1777874236 | 1.67° C | 87% | 1011.2 hPa | 0 mm | - | 0 W/m² | - |
| 1777873933 | 1.67° C | 88% | 1011.1 hPa | 0 mm | - | 0 W/m² | - |
| 1777873630 | 1.67° C | 91% | 1011.1 hPa | 0 mm | - | 0 W/m² | - |
| 1777873327 | 1.67° C | 93% | 1011.1 hPa | 0 mm | - | 0 W/m² | - |
| 1777873024 | 1.11° C | 93% | 1011.2 hPa | 0 mm | - | 0 W/m² | - |
| 1777872721 | 1.11° C | 93% | 1011.2 hPa | 0 mm | - | 0 W/m² | - |
| 1777872418 | 1.67° C | 92% | 1011.2 hPa | 0 mm | - | 0 W/m² | - |
| 1777872116 | 1.67° C | 92% | 1011.2 hPa | 0 mm | - | 0 W/m² | - |
| 1777871813 | 1.67° C | 92% | 1011.3 hPa | 0 mm | - | 0 W/m² | - |
| 1777871509 | 1.67° C | 92% | 1011.3 hPa | 0 mm | - | 0 W/m² | - |
| 1777871206 | 1.67° C | 92% | 1011.5 hPa | 0 mm | - | 0 W/m² | - |
* Rain latest hour (hover to see other rain measurements)
** Current wind speed in m/s (hover to see current wind gust speed)